sensor_id;sensor_type;location;lat;lon;timestamp;P1;durP1;ratioP1;P2;durP2;ratioP2
7454;SDS011;3769;51.208;4.454;2023-04-03T00:04:40;6;;;4.1;;
7454;SDS011;3769;51.208;4.454;2023-04-03T00:09:40;9.8;;;3.9;;
7454;SDS011;3769;51.208;4.454;2023-04-03T00:14:40;6.3;;;3.7;;
7454;SDS011;3769;51.208;4.454;2023-04-03T00:19:40;8.4;;;3.8;;
7454;SDS011;3769;51.208;4.454;2023-04-03T00:24:40;7;;;4.4;;
7454;SDS011;3769;51.208;4.454;2023-04-03T00:29:40;6.7;;;4;;
7454;SDS011;3769;51.208;4.454;2023-04-03T00:34:40;7.1;;;3.9;;
7454;SDS011;3769;51.208;4.454;2023-04-03T00:39:40;7.2;;;4;;
7454;SDS011;3769;51.208;4.454;2023-04-03T00:49:40;6.8;;;4.1;;
7454;SDS011;3769;51.208;4.454;2023-04-03T00:54:40;5.9;;;4;;
7454;SDS011;3769;51.208;4.454;2023-04-03T00:59:42;5.2;;;3.8;;
7454;SDS011;3769;51.208;4.454;2023-04-03T01:04:41;4.3;;;3.5;;
7454;SDS011;3769;51.208;4.454;2023-04-03T01:09:40;5.6;;;4.1;;
7454;SDS011;3769;51.208;4.454;2023-04-03T01:14:40;7.4;;;4;;
7454;SDS011;3769;51.208;4.454;2023-04-03T01:19:40;4.3;;;3.6;;
7454;SDS011;3769;51.208;4.454;2023-04-03T01:24:40;5.8;;;3.7;;
7454;SDS011;3769;51.208;4.454;2023-04-03T01:29:40;5.2;;;3.7;;
7454;SDS011;3769;51.208;4.454;2023-04-03T01:34:40;4.9;;;3.7;;
7454;SDS011;3769;51.208;4.454;2023-04-03T01:39:40;6.6;;;4.3;;
7454;SDS011;3769;51.208;4.454;2023-04-03T01:44:40;6.3;;;3.8;;
7454;SDS011;3769;51.208;4.454;2023-04-03T01:49:40;5.8;;;4.1;;
7454;SDS011;3769;51.208;4.454;2023-04-03T01:54:40;7.1;;;4;;
7454;SDS011;3769;51.208;4.454;2023-04-03T01:59:40;5.7;;;3.7;;
7454;SDS011;3769;51.208;4.454;2023-04-03T02:04:40;6.4;;;4;;
7454;SDS011;3769;51.208;4.454;2023-04-03T02:09:40;6.9;;;4;;
7454;SDS011;3769;51.208;4.454;2023-04-03T02:14:40;5.9;;;3.8;;
7454;SDS011;3769;51.208;4.454;2023-04-03T02:19:40;5;;;4;;
7454;SDS011;3769;51.208;4.454;2023-04-03T02:24:40;5;;;4;;
7454;SDS011;3769;51.208;4.454;2023-04-03T02:29:40;9.4;;;4.3;;
7454;SDS011;3769;51.208;4.454;2023-04-03T02:34:40;10.3;;;4.2;;
7454;SDS011;3769;51.208;4.454;2023-04-03T02:39:40;7.3;;;4.3;;
7454;SDS011;3769;51.208;4.454;2023-04-03T02:44:40;6.3;;;4.1;;
7454;SDS011;3769;51.208;4.454;2023-04-03T02:49:40;6.1;;;4.4;;
7454;SDS011;3769;51.208;4.454;2023-04-03T02:54:40;6.8;;;4.3;;
7454;SDS011;3769;51.208;4.454;2023-04-03T02:59:40;8.4;;;4.8;;
7454;SDS011;3769;51.208;4.454;2023-04-03T03:04:40;6.3;;;4.3;;
7454;SDS011;3769;51.208;4.454;2023-04-03T03:09:40;8.4;;;4.3;;
7454;SDS011;3769;51.208;4.454;2023-04-03T03:14:40;8.5;;;4.3;;
7454;SDS011;3769;51.208;4.454;2023-04-03T03:19:40;7;;;4.5;;
7454;SDS011;3769;51.208;4.454;2023-04-03T03:24:40;6.3;;;4.2;;
7454;SDS011;3769;51.208;4.454;2023-04-03T03:29:40;9;;;4.6;;
7454;SDS011;3769;51.208;4.454;2023-04-03T03:34:40;6.8;;;4.5;;
7454;SDS011;3769;51.208;4.454;2023-04-03T03:39:40;6.6;;;4.7;;
7454;SDS011;3769;51.208;4.454;2023-04-03T03:44:40;6.9;;;4.6;;
7454;SDS011;3769;51.208;4.454;2023-04-03T03:49:40;7.3;;;5.1;;
7454;SDS011;3769;51.208;4.454;2023-04-03T03:54:40;8.3;;;4.5;;
7454;SDS011;3769;51.208;4.454;2023-04-03T03:59:40;7.2;;;4.8;;
7454;SDS011;3769;51.208;4.454;2023-04-03T04:04:40;7.5;;;5.1;;
7454;SDS011;3769;51.208;4.454;2023-04-03T04:09:40;11.6;;;5.5;;
7454;SDS011;3769;51.208;4.454;2023-04-03T04:14:40;9.1;;;5.1;;
7454;SDS011;3769;51.208;4.454;2023-04-03T04:19:40;8.3;;;6;;
7454;SDS011;3769;51.208;4.454;2023-04-03T04:24:40;7.3;;;5;;
7454;SDS011;3769;51.208;4.454;2023-04-03T04:29:40;6.6;;;4.9;;
7454;SDS011;3769;51.208;4.454;2023-04-03T04:34:40;6.8;;;4.6;;
7454;SDS011;3769;51.208;4.454;2023-04-03T04:39:40;7;;;5.3;;
7454;SDS011;3769;51.208;4.454;2023-04-03T04:44:40;8.7;;;5.1;;
7454;SDS011;3769;51.208;4.454;2023-04-03T04:49:40;8.9;;;4.9;;
7454;SDS011;3769;51.208;4.454;2023-04-03T04:54:40;8.6;;;5.2;;
7454;SDS011;3769;51.208;4.454;2023-04-03T04:59:40;7.5;;;5.1;;
7454;SDS011;3769;51.208;4.454;2023-04-03T05:04:40;8.1;;;4.8;;
7454;SDS011;3769;51.208;4.454;2023-04-03T05:09:40;6.2;;;5;;
7454;SDS011;3769;51.208;4.454;2023-04-03T05:14:40;6.8;;;5.1;;
7454;SDS011;3769;51.208;4.454;2023-04-03T05:19:40;9.2;;;5;;
7454;SDS011;3769;51.208;4.454;2023-04-03T05:24:40;7.3;;;5.1;;
7454;SDS011;3769;51.208;4.454;2023-04-03T05:29:40;6.8;;;5;;
7454;SDS011;3769;51.208;4.454;2023-04-03T05:34:40;7.7;;;5.1;;
7454;SDS011;3769;51.208;4.454;2023-04-03T05:39:40;6.3;;;4.9;;
7454;SDS011;3769;51.208;4.454;2023-04-03T05:44:40;7.2;;;5.3;;
7454;SDS011;3769;51.208;4.454;2023-04-03T05:49:40;7.9;;;5.6;;
7454;SDS011;3769;51.208;4.454;2023-04-03T05:54:40;7;;;5;;
7454;SDS011;3769;51.208;4.454;2023-04-03T05:59:40;8.9;;;5.5;;
7454;SDS011;3769;51.208;4.454;2023-04-03T06:04:40;5.9;;;4.9;;
7454;SDS011;3769;51.208;4.454;2023-04-03T06:09:40;8.4;;;5;;
7454;SDS011;3769;51.208;4.454;2023-04-03T06:14:40;10.3;;;5.4;;
7454;SDS011;3769;51.208;4.454;2023-04-03T06:19:40;7.8;;;4.7;;
7454;SDS011;3769;51.208;4.454;2023-04-03T06:24:40;9.4;;;4.6;;
7454;SDS011;3769;51.208;4.454;2023-04-03T06:29:40;6.1;;;4.7;;
7454;SDS011;3769;51.208;4.454;2023-04-03T06:34:40;8.9;;;5.2;;
7454;SDS011;3769;51.208;4.454;2023-04-03T06:39:40;9.2;;;4.5;;
7454;SDS011;3769;51.208;4.454;2023-04-03T06:44:40;6.4;;;4.4;;
7454;SDS011;3769;51.208;4.454;2023-04-03T06:49:40;9;;;4.7;;
7454;SDS011;3769;51.208;4.454;2023-04-03T06:54:40;8.9;;;4.4;;
7454;SDS011;3769;51.208;4.454;2023-04-03T06:59:40;11;;;4.3;;
7454;SDS011;3769;51.208;4.454;2023-04-03T07:04:40;10.2;;;4.2;;
7454;SDS011;3769;51.208;4.454;2023-04-03T07:09:40;9.5;;;4;;
7454;SDS011;3769;51.208;4.454;2023-04-03T07:14:40;7.5;;;4.3;;
7454;SDS011;3769;51.208;4.454;2023-04-03T07:19:40;6.5;;;4.1;;
7454;SDS011;3769;51.208;4.454;2023-04-03T07:24:40;5.2;;;3.7;;
7454;SDS011;3769;51.208;4.454;2023-04-03T07:29:40;6.8;;;3.8;;
7454;SDS011;3769;51.208;4.454;2023-04-03T07:34:40;7.5;;;3.6;;
7454;SDS011;3769;51.208;4.454;2023-04-03T07:39:43;7.7;;;3.2;;
7454;SDS011;3769;51.208;4.454;2023-04-03T07:44:40;4.8;;;3.4;;
7454;SDS011;3769;51.208;4.454;2023-04-03T07:49:40;6;;;3.3;;
7454;SDS011;3769;51.208;4.454;2023-04-03T07:54:40;6.5;;;3.4;;
7454;SDS011;3769;51.208;4.454;2023-04-03T07:59:40;7.9;;;2.8;;
7454;SDS011;3769;51.208;4.454;2023-04-03T08:04:40;5.3;;;2.7;;
7454;SDS011;3769;51.208;4.454;2023-04-03T08:09:40;5.4;;;3.1;;
7454;SDS011;3769;51.208;4.454;2023-04-03T08:14:40;7.6;;;3.1;;
7454;SDS011;3769;51.208;4.454;2023-04-03T08:19:40;8;;;3.1;;
7454;SDS011;3769;51.208;4.454;2023-04-03T08:24:40;5.3;;;2.6;;
7454;SDS011;3769;51.208;4.454;2023-04-03T08:29:40;6.3;;;2.9;;
7454;SDS011;3769;51.208;4.454;2023-04-03T08:34:40;4.9;;;2.7;;
7454;SDS011;3769;51.208;4.454;2023-04-03T08:39:40;6.2;;;2.5;;
7454;SDS011;3769;51.208;4.454;2023-04-03T08:44:52;10;;;2.6;;
7454;SDS011;3769;51.208;4.454;2023-04-03T08:49:43;6.2;;;2.7;;
7454;SDS011;3769;51.208;4.454;2023-04-03T08:54:58;5.1;;;2.1;;
7454;SDS011;3769;51.208;4.454;2023-04-03T08:59:40;4.9;;;2.2;;
7454;SDS011;3769;51.208;4.454;2023-04-03T09:04:40;7;;;2.4;;
7454;SDS011;3769;51.208;4.454;2023-04-03T09:09:41;10;;;2.5;;
7454;SDS011;3769;51.208;4.454;2023-04-03T09:14:47;5.4;;;2.1;;
7454;SDS011;3769;51.208;4.454;2023-04-03T09:19:44;4.6;;;2.1;;
7454;SDS011;3769;51.208;4.454;2023-04-03T09:24:40;3.5;;;2.1;;
7454;SDS011;3769;51.208;4.454;2023-04-03T09:29:42;4.7;;;2;;
7454;SDS011;3769;51.208;4.454;2023-04-03T09:34:40;3.4;;;1.8;;
7454;SDS011;3769;51.208;4.454;2023-04-03T09:39:56;3.8;;;2;;
7454;SDS011;3769;51.208;4.454;2023-04-03T09:44:40;5.1;;;2;;
7454;SDS011;3769;51.208;4.454;2023-04-03T09:49:40;5.7;;;2.6;;
7454;SDS011;3769;51.208;4.454;2023-04-03T09:54:40;6.6;;;2.4;;
7454;SDS011;3769;51.208;4.454;2023-04-03T09:59:42;5.2;;;2.2;;
7454;SDS011;3769;51.208;4.454;2023-04-03T10:04:40;4.8;;;2.1;;
7454;SDS011;3769;51.208;4.454;2023-04-03T10:09:40;7.6;;;2.8;;
7454;SDS011;3769;51.208;4.454;2023-04-03T10:14:53;7.5;;;2;;
7454;SDS011;3769;51.208;4.454;2023-04-03T10:19:42;4.8;;;2;;
7454;SDS011;3769;51.208;4.454;2023-04-03T10:29:44;7.4;;;2.5;;
7454;SDS011;3769;51.208;4.454;2023-04-03T10:34:40;5;;;2;;
7454;SDS011;3769;51.208;4.454;2023-04-03T10:39:47;3.8;;;1.9;;
7454;SDS011;3769;51.208;4.454;2023-04-03T10:45:01;5.4;;;2.1;;
7454;SDS011;3769;51.208;4.454;2023-04-03T10:49:47;4.2;;;1.9;;
7454;SDS011;3769;51.208;4.454;2023-04-03T10:54:41;59.2;;;4.8;;
7454;SDS011;3769;51.208;4.454;2023-04-03T10:59:43;4.7;;;1.9;;
7454;SDS011;3769;51.208;4.454;2023-04-03T11:04:40;3.7;;;1.6;;
7454;SDS011;3769;51.208;4.454;2023-04-03T11:09:41;4.4;;;1.8;;
7454;SDS011;3769;51.208;4.454;2023-04-03T11:14:40;5.2;;;1.7;;
7454;SDS011;3769;51.208;4.454;2023-04-03T11:19:42;7.3;;;2.4;;
7454;SDS011;3769;51.208;4.454;2023-04-03T11:24:41;3.1;;;1.6;;
7454;SDS011;3769;51.208;4.454;2023-04-03T11:29:40;2;;;1.5;;
7454;SDS011;3769;51.208;4.454;2023-04-03T11:34:40;1.7;;;1.3;;
7454;SDS011;3769;51.208;4.454;2023-04-03T11:39:51;2.5;;;1.2;;
7454;SDS011;3769;51.208;4.454;2023-04-03T11:44:40;2.5;;;1.4;;
7454;SDS011;3769;51.208;4.454;2023-04-03T11:49:57;2.9;;;1.2;;
7454;SDS011;3769;51.208;4.454;2023-04-03T11:54:43;3.1;;;1.4;;
7454;SDS011;3769;51.208;4.454;2023-04-03T11:59:40;2.8;;;1.4;;
7454;SDS011;3769;51.208;4.454;2023-04-03T12:04:40;2.1;;;1.1;;
7454;SDS011;3769;51.208;4.454;2023-04-03T12:14:40;2.2;;;1.4;;
7454;SDS011;3769;51.208;4.454;2023-04-03T12:19:40;2.4;;;1.2;;
7454;SDS011;3769;51.208;4.454;2023-04-03T12:24:41;1.8;;;1.3;;
7454;SDS011;3769;51.208;4.454;2023-04-03T12:29:46;2.5;;;1.5;;
7454;SDS011;3769;51.208;4.454;2023-04-03T12:35:51;1.9;;;1.2;;
7454;SDS011;3769;51.208;4.454;2023-04-03T12:39:53;1.8;;;1.4;;
7454;SDS011;3769;51.208;4.454;2023-04-03T12:44:46;3.3;;;1.3;;
7454;SDS011;3769;51.208;4.454;2023-04-03T12:49:41;3.9;;;1.5;;
7454;SDS011;3769;51.208;4.454;2023-04-03T12:54:40;1.3;;;1.2;;
7454;SDS011;3769;51.208;4.454;2023-04-03T12:59:40;1.6;;;1.2;;
7454;SDS011;3769;51.208;4.454;2023-04-03T13:04:40;2;;;1.4;;
7454;SDS011;3769;51.208;4.454;2023-04-03T13:09:40;3.8;;;1.4;;
7454;SDS011;3769;51.208;4.454;2023-04-03T13:14:50;2.3;;;1.3;;
7454;SDS011;3769;51.208;4.454;2023-04-03T13:19:41;3;;;1.3;;
7454;SDS011;3769;51.208;4.454;2023-04-03T13:24:40;1.5;;;1;;
7454;SDS011;3769;51.208;4.454;2023-04-03T13:29:40;1.7;;;1.2;;
7454;SDS011;3769;51.208;4.454;2023-04-03T13:34:41;1.7;;;1.3;;
7454;SDS011;3769;51.208;4.454;2023-04-03T13:39:40;2.9;;;1.5;;
7454;SDS011;3769;51.208;4.454;2023-04-03T13:44:40;2.4;;;1.3;;
7454;SDS011;3769;51.208;4.454;2023-04-03T13:49:43;4.4;;;1.2;;
7454;SDS011;3769;51.208;4.454;2023-04-03T13:54:40;5.8;;;1.5;;
7454;SDS011;3769;51.208;4.454;2023-04-03T13:59:41;2.6;;;1.7;;
7454;SDS011;3769;51.208;4.454;2023-04-03T14:04:49;5.5;;;1.5;;
7454;SDS011;3769;51.208;4.454;2023-04-03T14:09:40;4.5;;;1.3;;
7454;SDS011;3769;51.208;4.454;2023-04-03T14:14:40;3.1;;;1.3;;
7454;SDS011;3769;51.208;4.454;2023-04-03T14:19:40;4.6;;;1.6;;
7454;SDS011;3769;51.208;4.454;2023-04-03T14:24:40;1.9;;;1.1;;
7454;SDS011;3769;51.208;4.454;2023-04-03T14:29:40;1.3;;;1.2;;
7454;SDS011;3769;51.208;4.454;2023-04-03T14:34:41;2.4;;;1.2;;
7454;SDS011;3769;51.208;4.454;2023-04-03T14:39:41;2.6;;;1.3;;
7454;SDS011;3769;51.208;4.454;2023-04-03T14:44:40;3.7;;;1.7;;
7454;SDS011;3769;51.208;4.454;2023-04-03T14:49:41;3.3;;;1.3;;
7454;SDS011;3769;51.208;4.454;2023-04-03T14:54:40;4.5;;;1.3;;
7454;SDS011;3769;51.208;4.454;2023-04-03T14:59:40;2;;;1.2;;
7454;SDS011;3769;51.208;4.454;2023-04-03T15:04:40;2.6;;;1.1;;
7454;SDS011;3769;51.208;4.454;2023-04-03T15:09:40;4.5;;;1.5;;
7454;SDS011;3769;51.208;4.454;2023-04-03T15:14:40;4.2;;;1.5;;
7454;SDS011;3769;51.208;4.454;2023-04-03T15:19:40;3;;;1.3;;
7454;SDS011;3769;51.208;4.454;2023-04-03T15:24:40;2.6;;;1.3;;
7454;SDS011;3769;51.208;4.454;2023-04-03T15:29:41;1.9;;;1.4;;
7454;SDS011;3769;51.208;4.454;2023-04-03T15:34:40;4.3;;;1.4;;
7454;SDS011;3769;51.208;4.454;2023-04-03T15:39:40;5.2;;;1.5;;
7454;SDS011;3769;51.208;4.454;2023-04-03T15:44:40;4.2;;;1.4;;
7454;SDS011;3769;51.208;4.454;2023-04-03T15:49:40;2.1;;;1.2;;
7454;SDS011;3769;51.208;4.454;2023-04-03T15:54:40;4;;;1.2;;
7454;SDS011;3769;51.208;4.454;2023-04-03T15:59:40;5.1;;;1.5;;
7454;SDS011;3769;51.208;4.454;2023-04-03T16:04:40;7.8;;;1.6;;
7454;SDS011;3769;51.208;4.454;2023-04-03T16:09:40;4.2;;;1.6;;
7454;SDS011;3769;51.208;4.454;2023-04-03T16:14:40;9;;;5.1;;
7454;SDS011;3769;51.208;4.454;2023-04-03T16:19:40;2.9;;;1.9;;
7454;SDS011;3769;51.208;4.454;2023-04-03T16:24:40;2.7;;;1.6;;
7454;SDS011;3769;51.208;4.454;2023-04-03T16:29:40;4.9;;;1.8;;
7454;SDS011;3769;51.208;4.454;2023-04-03T16:34:40;3.8;;;1.6;;
7454;SDS011;3769;51.208;4.454;2023-04-03T16:39:40;9.6;;;3.3;;
7454;SDS011;3769;51.208;4.454;2023-04-03T16:44:40;5.1;;;2.6;;
7454;SDS011;3769;51.208;4.454;2023-04-03T16:49:40;4.9;;;2;;
7454;SDS011;3769;51.208;4.454;2023-04-03T16:54:40;9.8;;;2.3;;
7454;SDS011;3769;51.208;4.454;2023-04-03T16:59:40;3.4;;;1.6;;
7454;SDS011;3769;51.208;4.454;2023-04-03T17:04:40;5.3;;;1.6;;
7454;SDS011;3769;51.208;4.454;2023-04-03T17:09:40;4;;;1.8;;
7454;SDS011;3769;51.208;4.454;2023-04-03T17:14:40;4.4;;;1.7;;
7454;SDS011;3769;51.208;4.454;2023-04-03T17:19:40;4.2;;;2.1;;
7454;SDS011;3769;51.208;4.454;2023-04-03T17:24:40;6.7;;;4;;
7454;SDS011;3769;51.208;4.454;2023-04-03T17:29:40;5.4;;;2.2;;
7454;SDS011;3769;51.208;4.454;2023-04-03T17:34:40;4;;;2;;
7454;SDS011;3769;51.208;4.454;2023-04-03T17:39:40;3.7;;;1.6;;
7454;SDS011;3769;51.208;4.454;2023-04-03T17:44:40;3.9;;;1.8;;
7454;SDS011;3769;51.208;4.454;2023-04-03T17:49:40;3.7;;;2;;
7454;SDS011;3769;51.208;4.454;2023-04-03T17:54:40;3.8;;;2;;
7454;SDS011;3769;51.208;4.454;2023-04-03T17:59:40;2.8;;;1.9;;
7454;SDS011;3769;51.208;4.454;2023-04-03T18:04:40;4.8;;;2.1;;
7454;SDS011;3769;51.208;4.454;2023-04-03T18:09:40;3.9;;;1.8;;
7454;SDS011;3769;51.208;4.454;2023-04-03T18:14:40;3.2;;;1.7;;
7454;SDS011;3769;51.208;4.454;2023-04-03T18:19:40;4.4;;;1.9;;
7454;SDS011;3769;51.208;4.454;2023-04-03T18:24:40;5.8;;;1.9;;
7454;SDS011;3769;51.208;4.454;2023-04-03T18:29:41;3.3;;;1.6;;
7454;SDS011;3769;51.208;4.454;2023-04-03T18:34:40;3.6;;;1.6;;
7454;SDS011;3769;51.208;4.454;2023-04-03T18:39:40;3;;;1.7;;
7454;SDS011;3769;51.208;4.454;2023-04-03T18:44:41;4.9;;;2.1;;
7454;SDS011;3769;51.208;4.454;2023-04-03T18:49:41;4.7;;;1.9;;
7454;SDS011;3769;51.208;4.454;2023-04-03T18:54:40;4.5;;;1.9;;
7454;SDS011;3769;51.208;4.454;2023-04-03T18:59:40;3.5;;;2;;
7454;SDS011;3769;51.208;4.454;2023-04-03T19:04:40;6;;;2.1;;
7454;SDS011;3769;51.208;4.454;2023-04-03T19:09:40;5;;;2.1;;
7454;SDS011;3769;51.208;4.454;2023-04-03T19:14:40;5.6;;;2.2;;
7454;SDS011;3769;51.208;4.454;2023-04-03T19:19:40;4.9;;;2.3;;
7454;SDS011;3769;51.208;4.454;2023-04-03T19:24:40;4.4;;;2.2;;
7454;SDS011;3769;51.208;4.454;2023-04-03T19:29:40;5;;;2.2;;
7454;SDS011;3769;51.208;4.454;2023-04-03T19:34:40;4.1;;;2.2;;
7454;SDS011;3769;51.208;4.454;2023-04-03T19:39:41;5.5;;;2.2;;
7454;SDS011;3769;51.208;4.454;2023-04-03T19:44:40;4.2;;;2.3;;
7454;SDS011;3769;51.208;4.454;2023-04-03T19:49:41;6;;;2.2;;
7454;SDS011;3769;51.208;4.454;2023-04-03T19:54:40;4.9;;;2.3;;
7454;SDS011;3769;51.208;4.454;2023-04-03T19:59:40;7.6;;;2.5;;
7454;SDS011;3769;51.208;4.454;2023-04-03T20:04:40;4;;;2;;
7454;SDS011;3769;51.208;4.454;2023-04-03T20:09:40;4.5;;;2.3;;
7454;SDS011;3769;51.208;4.454;2023-04-03T20:14:40;8;;;2.1;;
7454;SDS011;3769;51.208;4.454;2023-04-03T20:19:40;3.8;;;2;;
7454;SDS011;3769;51.208;4.454;2023-04-03T20:24:40;3.2;;;1.8;;
7454;SDS011;3769;51.208;4.454;2023-04-03T20:29:40;5.1;;;2.1;;
7454;SDS011;3769;51.208;4.454;2023-04-03T20:34:41;5;;;2.1;;
7454;SDS011;3769;51.208;4.454;2023-04-03T20:39:40;4.2;;;2.1;;
7454;SDS011;3769;51.208;4.454;2023-04-03T20:44:40;6;;;1.8;;
7454;SDS011;3769;51.208;4.454;2023-04-03T20:49:40;3.9;;;2;;
7454;SDS011;3769;51.208;4.454;2023-04-03T20:54:40;3.3;;;1.9;;
7454;SDS011;3769;51.208;4.454;2023-04-03T20:59:40;3.6;;;2.1;;
7454;SDS011;3769;51.208;4.454;2023-04-03T21:04:43;4.6;;;2.2;;
7454;SDS011;3769;51.208;4.454;2023-04-03T21:19:41;3.5;;;2;;
7454;SDS011;3769;51.208;4.454;2023-04-03T21:24:41;8.6;;;2.3;;
7454;SDS011;3769;51.208;4.454;2023-04-03T21:29:41;5.5;;;2.2;;
7454;SDS011;3769;51.208;4.454;2023-04-03T21:34:40;3.7;;;2.2;;
7454;SDS011;3769;51.208;4.454;2023-04-03T21:39:40;5.8;;;2;;
7454;SDS011;3769;51.208;4.454;2023-04-03T21:44:40;8;;;2;;
7454;SDS011;3769;51.208;4.454;2023-04-03T21:49:40;5.5;;;2.2;;
7454;SDS011;3769;51.208;4.454;2023-04-03T21:54:40;5.4;;;2.3;;
7454;SDS011;3769;51.208;4.454;2023-04-03T21:59:40;3.4;;;2;;
7454;SDS011;3769;51.208;4.454;2023-04-03T22:04:40;5.4;;;2.3;;
7454;SDS011;3769;51.208;4.454;2023-04-03T22:09:40;4.9;;;2.2;;
7454;SDS011;3769;51.208;4.454;2023-04-03T22:14:40;3.6;;;2.3;;
7454;SDS011;3769;51.208;4.454;2023-04-03T22:19:40;4.2;;;1.9;;
7454;SDS011;3769;51.208;4.454;2023-04-03T22:24:40;5.1;;;2.1;;
7454;SDS011;3769;51.208;4.454;2023-04-03T22:29:40;5;;;2.1;;
7454;SDS011;3769;51.208;4.454;2023-04-03T22:34:40;5.9;;;2.2;;
7454;SDS011;3769;51.208;4.454;2023-04-03T22:39:40;6.7;;;2.4;;
7454;SDS011;3769;51.208;4.454;2023-04-03T22:44:40;3.5;;;1.8;;
7454;SDS011;3769;51.208;4.454;2023-04-03T22:49:40;4;;;2;;
7454;SDS011;3769;51.208;4.454;2023-04-03T22:54:40;6.1;;;2.4;;
7454;SDS011;3769;51.208;4.454;2023-04-03T22:59:40;3.6;;;2.1;;
7454;SDS011;3769;51.208;4.454;2023-04-03T23:04:40;4.5;;;2.3;;
7454;SDS011;3769;51.208;4.454;2023-04-03T23:09:40;4;;;2;;
7454;SDS011;3769;51.208;4.454;2023-04-03T23:14:40;6.2;;;2.2;;
7454;SDS011;3769;51.208;4.454;2023-04-03T23:19:40;5.8;;;2.1;;
7454;SDS011;3769;51.208;4.454;2023-04-03T23:24:40;5.3;;;2.3;;
7454;SDS011;3769;51.208;4.454;2023-04-03T23:29:40;5;;;2.1;;
7454;SDS011;3769;51.208;4.454;2023-04-03T23:34:40;4.2;;;2.3;;
7454;SDS011;3769;51.208;4.454;2023-04-03T23:39:40;5.6;;;2.1;;
7454;SDS011;3769;51.208;4.454;2023-04-03T23:44:40;5;;;2.1;;
7454;SDS011;3769;51.208;4.454;2023-04-03T23:49:40;4.9;;;2.3;;
7454;SDS011;3769;51.208;4.454;2023-04-03T23:54:40;4.5;;;2;;
7454;SDS011;3769;51.208;4.454;2023-04-03T23:59:40;4;;;1.9;;
